sensor_id;sensor_type;location;lat;lon;timestamp;pressure;altitude;pressure_sealevel;temperature;humidity
64844;BME280;51310;52.198;5.422;2023-02-17T00:00:06;101646.88;;;8.70;100.00
64844;BME280;51310;52.198;5.422;2023-02-17T00:02:34;101646.31;;;8.72;100.00
64844;BME280;51310;52.198;5.422;2023-02-17T00:04:59;101642.66;;;8.70;100.00
64844;BME280;51310;52.198;5.422;2023-02-17T00:07:25;101639.00;;;8.68;100.00
64844;BME280;51310;52.198;5.422;2023-02-17T00:09:59;101641.94;;;8.71;100.00
64844;BME280;51310;52.198;5.422;2023-02-17T00:12:25;101638.28;;;8.69;100.00
64844;BME280;51310;52.198;5.422;2023-02-17T00:14:51;101640.09;;;8.70;100.00
64844;BME280;51310;52.198;5.422;2023-02-17T00:17:17;101634.44;;;8.73;100.00
64844;BME280;51310;52.198;5.422;2023-02-17T00:19:43;101636.06;;;8.72;100.00
64844;BME280;51310;52.198;5.422;2023-02-17T00:22:08;101626.91;;;8.67;100.00
64844;BME280;51310;52.198;5.422;2023-02-17T00:24:38;101629.47;;;8.67;100.00
64844;BME280;51310;52.198;5.422;2023-02-17T00:27:04;101628.19;;;8.71;100.00
64844;BME280;51310;52.198;5.422;2023-02-17T00:29:31;101629.81;;;8.70;100.00
64844;BME280;51310;52.198;5.422;2023-02-17T00:31:57;101627.25;;;8.70;100.00
64844;BME280;51310;52.198;5.422;2023-02-17T00:34:23;101621.41;;;8.71;100.00
64844;BME280;51310;52.198;5.422;2023-02-17T00:36:49;101618.84;;;8.71;100.00
64844;BME280;51310;52.198;5.422;2023-02-17T00:39:16;101626.72;;;8.73;100.00
64844;BME280;51310;52.198;5.422;2023-02-17T00:41:42;101625.78;;;8.72;100.00
64844;BME280;51310;52.198;5.422;2023-02-17T00:44:22;101617.00;;;8.70;100.00
64844;BME280;51310;52.198;5.422;2023-02-17T00:46:49;101613.72;;;8.71;100.00
64844;BME280;51310;52.198;5.422;2023-02-17T00:49:22;101609.31;;;8.70;100.00
64844;BME280;51310;52.198;5.422;2023-02-17T00:51:49;101606.56;;;8.69;100.00
64844;BME280;51310;52.198;5.422;2023-02-17T00:54:15;101613.72;;;8.71;100.00
64844;BME280;51310;52.198;5.422;2023-02-17T00:56:41;101604.91;;;8.69;100.00
64844;BME280;51310;52.198;5.422;2023-02-17T00:59:09;101611.16;;;8.71;100.00
64844;BME280;51310;52.198;5.422;2023-02-17T01:01:36;101611.88;;;8.70;100.00
64844;BME280;51310;52.198;5.422;2023-02-17T01:04:02;101615.91;;;8.68;100.00
64844;BME280;51310;52.198;5.422;2023-02-17T01:06:35;101610.06;;;8.69;100.00
64844;BME280;51310;52.198;5.422;2023-02-17T01:09:03;101608.06;;;8.67;100.00
64844;BME280;51310;52.198;5.422;2023-02-17T01:11:32;101600.16;;;8.65;100.00
64844;BME280;51310;52.198;5.422;2023-02-17T01:13:59;101605.28;;;8.65;100.00
64844;BME280;51310;52.198;5.422;2023-02-17T01:16:33;101618.47;;;8.68;100.00
64844;BME280;51310;52.198;5.422;2023-02-17T01:19:07;101621.97;;;8.61;100.00
64844;BME280;51310;52.198;5.422;2023-02-17T01:21:34;101624.53;;;8.61;100.00
64844;BME280;51310;52.198;5.422;2023-02-17T01:24:03;101633.00;;;8.60;100.00
64844;BME280;51310;52.198;5.422;2023-02-17T01:26:32;101625.84;;;8.58;100.00
64844;BME280;51310;52.198;5.422;2023-02-17T01:28:58;101623.09;;;8.56;100.00
64844;BME280;51310;52.198;5.422;2023-02-17T01:31:25;101609.19;;;8.54;100.00
64844;BME280;51310;52.198;5.422;2023-02-17T01:33:56;101617.25;;;8.50;100.00
64844;BME280;51310;52.198;5.422;2023-02-17T01:36:22;101618.00;;;8.49;100.00
64844;BME280;51310;52.198;5.422;2023-02-17T01:38:48;101620.75;;;8.44;100.00
64844;BME280;51310;52.198;5.422;2023-02-17T01:41:17;101625.31;;;8.46;100.00
64844;BME280;51310;52.198;5.422;2023-02-17T01:46:40;101614.28;;;8.40;100.00
64844;BME280;51310;52.198;5.422;2023-02-17T01:49:14;101614.84;;;8.37;100.00
64844;BME280;51310;52.198;5.422;2023-02-17T01:51:44;101617.78;;;8.33;100.00
64844;BME280;51310;52.198;5.422;2023-02-17T01:54:18;101611.97;;;8.27;100.00
64844;BME280;51310;52.198;5.422;2023-02-17T01:56:47;101610.13;;;8.26;100.00
64844;BME280;51310;52.198;5.422;2023-02-17T01:59:19;101616.69;;;8.31;100.00
64844;BME280;51310;52.198;5.422;2023-02-17T02:01:48;101613.22;;;8.31;100.00
64844;BME280;51310;52.198;5.422;2023-02-17T02:04:18;101597.09;;;8.25;100.00
64844;BME280;51310;52.198;5.422;2023-02-17T02:06:46;101600.22;;;8.22;100.00
64844;BME280;51310;52.198;5.422;2023-02-17T02:09:21;101587.06;;;8.19;100.00
64844;BME280;51310;52.198;5.422;2023-02-17T02:11:50;101585.22;;;8.18;100.00
64844;BME280;51310;52.198;5.422;2023-02-17T02:14:18;101587.06;;;8.12;100.00
64844;BME280;51310;52.198;5.422;2023-02-17T02:32:46;101564.56;;;7.95;100.00
64844;BME280;51310;52.198;5.422;2023-02-17T02:35:30;101559.06;;;7.92;100.00
64844;BME280;51310;52.198;5.422;2023-02-17T02:41:28;101547.72;;;7.90;100.00
64844;BME280;51310;52.198;5.422;2023-02-17T02:43:55;101533.47;;;7.85;100.00
64844;BME280;51310;52.198;5.422;2023-02-17T02:46:20;101545.53;;;7.86;100.00
64844;BME280;51310;52.198;5.422;2023-02-17T02:48:47;101549.94;;;7.87;100.00
64844;BME280;51310;52.198;5.422;2023-02-17T02:57:43;101549.38;;;7.89;100.00
64844;BME280;51310;52.198;5.422;2023-02-17T03:00:40;101556.50;;;7.92;100.00
64844;BME280;51310;52.198;5.422;2023-02-17T03:03:28;101549.38;;;7.89;100.00
64844;BME280;51310;52.198;5.422;2023-02-17T03:06:29;101536.75;;;7.91;100.00
64844;BME280;51310;52.198;5.422;2023-02-17T03:09:10;101538.75;;;7.93;100.00
64844;BME280;51310;52.198;5.422;2023-02-17T03:11:38;101542.97;;;7.93;100.00
64844;BME280;51310;52.198;5.422;2023-02-17T03:14:11;101524.28;;;7.94;100.00
64844;BME280;51310;52.198;5.422;2023-02-17T03:16:40;101539.13;;;7.89;100.00
64844;BME280;51310;52.198;5.422;2023-02-17T03:19:08;101517.88;;;7.90;100.00
64844;BME280;51310;52.198;5.422;2023-02-17T03:21:42;101516.06;;;7.89;100.00
64844;BME280;51310;52.198;5.422;2023-02-17T03:24:09;101523.56;;;7.88;100.00
64844;BME280;51310;52.198;5.422;2023-02-17T03:26:35;101515.69;;;7.93;100.00
64844;BME280;51310;52.198;5.422;2023-02-17T03:29:01;101502.13;;;7.94;100.00
64844;BME280;51310;52.198;5.422;2023-02-17T03:31:27;101501.97;;;7.93;100.00
64844;BME280;51310;52.198;5.422;2023-02-17T03:33:52;101498.84;;;7.95;100.00
64844;BME280;51310;52.198;5.422;2023-02-17T03:36:18;101495.91;;;7.92;100.00
64844;BME280;51310;52.198;5.422;2023-02-17T03:38:44;101493.34;;;7.92;100.00
64844;BME280;51310;52.198;5.422;2023-02-17T03:41:10;101482.72;;;7.89;100.00
64844;BME280;51310;52.198;5.422;2023-02-17T03:43:35;101476.16;;;7.91;100.00
64844;BME280;51310;52.198;5.422;2023-02-17T03:46:01;101495.75;;;7.91;100.00
64844;BME280;51310;52.198;5.422;2023-02-17T03:48:27;101488.78;;;7.97;100.00
64844;BME280;51310;52.198;5.422;2023-02-17T03:50:54;101480.91;;;7.95;100.00
64844;BME280;51310;52.198;5.422;2023-02-17T03:53:19;101486.03;;;7.95;100.00
64844;BME280;51310;52.198;5.422;2023-02-17T03:55:45;101470.66;;;7.95;100.00
64844;BME280;51310;52.198;5.422;2023-02-17T03:58:11;101472.13;;;7.93;100.00
64844;BME280;51310;52.198;5.422;2023-02-17T04:00:36;101476.16;;;7.91;100.00
64844;BME280;51310;52.198;5.422;2023-02-17T04:03:02;101469.00;;;7.96;100.00
64844;BME280;51310;52.198;5.422;2023-02-17T04:05:28;101469.34;;;7.99;100.00
64844;BME280;51310;52.198;5.422;2023-02-17T04:07:53;101462.03;;;8.02;100.00
64844;BME280;51310;52.198;5.422;2023-02-17T04:10:19;101470.44;;;8.01;100.00
64844;BME280;51310;52.198;5.422;2023-02-17T04:12:45;101464.94;;;8.05;100.00
64844;BME280;51310;52.198;5.422;2023-02-17T04:15:11;101480.50;;;8.07;100.00
64844;BME280;51310;52.198;5.422;2023-02-17T04:17:37;101480.13;;;8.11;100.00
64844;BME280;51310;52.198;5.422;2023-02-17T04:20:05;101487.25;;;8.13;100.00
64844;BME280;51310;52.198;5.422;2023-02-17T04:22:31;101484.88;;;8.15;100.00
64844;BME280;51310;52.198;5.422;2023-02-17T04:24:56;101488.53;;;8.17;100.00
64844;BME280;51310;52.198;5.422;2023-02-17T04:27:22;101492.91;;;8.18;100.00
64844;BME280;51310;52.198;5.422;2023-02-17T04:29:48;101502.06;;;8.23;100.00
64844;BME280;51310;52.198;5.422;2023-02-17T04:32:13;101488.50;;;8.24;100.00
64844;BME280;51310;52.198;5.422;2023-02-17T04:34:39;101487.41;;;8.22;100.00
64844;BME280;51310;52.198;5.422;2023-02-17T04:37:05;101470.53;;;8.24;100.00
64844;BME280;51310;52.198;5.422;2023-02-17T04:39:31;101456.25;;;8.26;100.00
64844;BME280;51310;52.198;5.422;2023-02-17T04:41:57;101446.00;;;8.26;100.00
64844;BME280;51310;52.198;5.422;2023-02-17T04:44:22;101447.28;;;8.30;100.00
64844;BME280;51310;52.198;5.422;2023-02-17T04:46:48;101454.03;;;8.29;100.00
64844;BME280;51310;52.198;5.422;2023-02-17T04:49:14;101454.97;;;8.30;100.00
64844;BME280;51310;52.198;5.422;2023-02-17T04:51:39;101438.09;;;8.32;100.00
64844;BME280;51310;52.198;5.422;2023-02-17T04:54:05;101442.66;;;8.34;100.00
64844;BME280;51310;52.198;5.422;2023-02-17T04:56:31;101434.22;;;8.35;100.00
64844;BME280;51310;52.198;5.422;2023-02-17T04:58:56;101450.69;;;8.37;100.00
64844;BME280;51310;52.198;5.422;2023-02-17T05:01:22;101453.25;;;8.37;100.00
64844;BME280;51310;52.198;5.422;2023-02-17T05:03:48;101452.00;;;8.41;100.00
64844;BME280;51310;52.198;5.422;2023-02-17T05:06:13;101450.72;;;8.45;100.00
64844;BME280;51310;52.198;5.422;2023-02-17T05:08:39;101456.56;;;8.44;100.00
64844;BME280;51310;52.198;5.422;2023-02-17T05:11:05;101455.09;;;8.46;100.00
64844;BME280;51310;52.198;5.422;2023-02-17T05:13:31;101455.84;;;8.45;100.00
64844;BME280;51310;52.198;5.422;2023-02-17T05:15:58;101462.78;;;8.46;100.00
64844;BME280;51310;52.198;5.422;2023-02-17T05:18:23;101479.28;;;8.48;100.00
64844;BME280;51310;52.198;5.422;2023-02-17T05:20:50;101472.69;;;8.50;100.00
64844;BME280;51310;52.198;5.422;2023-02-17T05:23:16;101465.56;;;8.47;100.00
64844;BME280;51310;52.198;5.422;2023-02-17T05:25:42;101437.31;;;8.47;100.00
64844;BME280;51310;52.198;5.422;2023-02-17T05:28:07;101444.31;;;8.41;100.00
64844;BME280;51310;52.198;5.422;2023-02-17T05:30:33;101457.31;;;8.43;100.00
64844;BME280;51310;52.198;5.422;2023-02-17T05:32:59;101449.78;;;8.37;100.00
64844;BME280;51310;52.198;5.422;2023-02-17T05:35:25;101451.78;;;8.39;100.00
64844;BME280;51310;52.198;5.422;2023-02-17T05:37:51;101464.63;;;8.39;100.00
64844;BME280;51310;52.198;5.422;2023-02-17T05:40:17;101446.88;;;8.41;100.00
64844;BME280;51310;52.198;5.422;2023-02-17T05:42:42;101428.94;;;8.41;100.00
64844;BME280;51310;52.198;5.422;2023-02-17T05:45:08;101459.72;;;8.41;100.00
64844;BME280;51310;52.198;5.422;2023-02-17T05:47:34;101452.53;;;8.38;100.00
64844;BME280;51310;52.198;5.422;2023-02-17T05:50:00;101443.00;;;8.37;100.00
64844;BME280;51310;52.198;5.422;2023-02-17T05:52:26;101440.44;;;8.37;100.00
64844;BME280;51310;52.198;5.422;2023-02-17T05:54:52;101432.03;;;8.38;100.00
64844;BME280;51310;52.198;5.422;2023-02-17T05:57:18;101434.59;;;8.38;100.00
64844;BME280;51310;52.198;5.422;2023-02-17T05:59:43;101429.47;;;8.38;100.00
64844;BME280;51310;52.198;5.422;2023-02-17T06:02:09;101429.63;;;8.40;100.00
64844;BME280;51310;52.198;5.422;2023-02-17T06:04:35;101437.31;;;8.40;100.00
64844;BME280;51310;52.198;5.422;2023-02-17T06:07:01;101435.72;;;8.40;100.00
64844;BME280;51310;52.198;5.422;2023-02-17T06:09:26;101443.41;;;8.40;100.00
64844;BME280;51310;52.198;5.422;2023-02-17T06:11:52;101436.81;;;8.43;100.00
64844;BME280;51310;52.198;5.422;2023-02-17T06:14:18;101430.03;;;8.43;100.00
64844;BME280;51310;52.198;5.422;2023-02-17T06:16:43;101432.59;;;8.43;100.00
64844;BME280;51310;52.198;5.422;2023-02-17T06:19:09;101428.53;;;8.45;100.00
64844;BME280;51310;52.198;5.422;2023-02-17T06:21:35;101414.25;;;8.47;100.00
64844;BME280;51310;52.198;5.422;2023-02-17T06:24:01;101446.44;;;8.52;100.00
64844;BME280;51310;52.198;5.422;2023-02-17T06:26:27;101436.19;;;8.52;100.00
64844;BME280;51310;52.198;5.422;2023-02-17T06:28:53;101434.91;;;8.56;100.00
64844;BME280;51310;52.198;5.422;2023-02-17T06:31:18;101426.28;;;8.55;100.00
64844;BME280;51310;52.198;5.422;2023-02-17T06:33:44;101426.63;;;8.58;100.00
64844;BME280;51310;52.198;5.422;2023-02-17T06:36:10;101413.63;;;8.57;100.00
64844;BME280;51310;52.198;5.422;2023-02-17T06:38:36;101405.00;;;8.56;100.00
64844;BME280;51310;52.198;5.422;2023-02-17T06:41:01;101404.13;;;8.56;100.00
64844;BME280;51310;52.198;5.422;2023-02-17T06:43:27;101396.59;;;8.57;100.00
64844;BME280;51310;52.198;5.422;2023-02-17T06:45:53;101394.19;;;8.59;100.00
64844;BME280;51310;52.198;5.422;2023-02-17T06:48:18;101393.28;;;8.58;100.00
64844;BME280;51310;52.198;5.422;2023-02-17T06:50:44;101397.13;;;8.62;100.00
64844;BME280;51310;52.198;5.422;2023-02-17T06:53:10;101404.56;;;8.68;100.00
64844;BME280;51310;52.198;5.422;2023-02-17T06:55:35;101410.78;;;8.70;100.00
64844;BME280;51310;52.198;5.422;2023-02-17T06:58:03;101404.00;;;8.70;100.00
64844;BME280;51310;52.198;5.422;2023-02-17T07:00:29;101398.72;;;8.69;100.00
64844;BME280;51310;52.198;5.422;2023-02-17T07:02:55;101385.50;;;8.73;100.00
64844;BME280;51310;52.198;5.422;2023-02-17T07:05:20;101385.50;;;8.73;100.00
64844;BME280;51310;52.198;5.422;2023-02-17T07:07:46;101378.69;;;8.73;100.00
64844;BME280;51310;52.198;5.422;2023-02-17T07:10:12;101383.59;;;8.79;100.00
64844;BME280;51310;52.198;5.422;2023-02-17T07:12:38;101394.78;;;8.79;100.00
64844;BME280;51310;52.198;5.422;2023-02-17T07:15:04;101400.84;;;8.80;100.00
64844;BME280;51310;52.198;5.422;2023-02-17T07:17:30;101402.25;;;8.85;100.00
64844;BME280;51310;52.198;5.422;2023-02-17T07:19:56;101404.41;;;8.89;100.00
64844;BME280;51310;52.198;5.422;2023-02-17T07:22:21;101425.13;;;8.91;100.00
64844;BME280;51310;52.198;5.422;2023-02-17T07:24:50;101417.63;;;8.92;100.00
64844;BME280;51310;52.198;5.422;2023-02-17T07:27:15;101419.44;;;8.93;100.00
64844;BME280;51310;52.198;5.422;2023-02-17T07:29:41;101402.53;;;8.95;100.00
64844;BME280;51310;52.198;5.422;2023-02-17T07:32:07;101408.25;;;8.93;100.00
64844;BME280;51310;52.198;5.422;2023-02-17T07:34:32;101399.06;;;8.95;100.00
64844;BME280;51310;52.198;5.422;2023-02-17T07:36:58;101401.97;;;8.98;100.00
64844;BME280;51310;52.198;5.422;2023-02-17T07:39:24;101401.25;;;8.99;100.00
64844;BME280;51310;52.198;5.422;2023-02-17T07:41:50;101391.66;;;9.05;100.00
64844;BME280;51310;52.198;5.422;2023-02-17T07:44:15;101398.78;;;9.08;100.00
64844;BME280;51310;52.198;5.422;2023-02-17T07:46:41;101386.28;;;9.11;100.00
64844;BME280;51310;52.198;5.422;2023-02-17T07:49:07;101385.16;;;9.16;100.00
64844;BME280;51310;52.198;5.422;2023-02-17T07:51:33;101394.66;;;9.17;100.00
64844;BME280;51310;52.198;5.422;2023-02-17T07:54:00;101400.88;;;9.19;100.00
64844;BME280;51310;52.198;5.422;2023-02-17T07:56:26;101408.91;;;9.22;100.00
64844;BME280;51310;52.198;5.422;2023-02-17T07:58:54;101396.44;;;9.25;100.00
64844;BME280;51310;52.198;5.422;2023-02-17T08:01:24;101395.69;;;9.26;100.00
64844;BME280;51310;52.198;5.422;2023-02-17T08:03:51;101402.25;;;9.31;100.00
64844;BME280;51310;52.198;5.422;2023-02-17T08:06:23;101403.47;;;9.35;100.00
64844;BME280;51310;52.198;5.422;2023-02-17T08:08:51;101410.66;;;9.37;100.00
64844;BME280;51310;52.198;5.422;2023-02-17T08:11:36;101415.03;;;9.38;100.00
64844;BME280;51310;52.198;5.422;2023-02-17T08:14:24;101418.69;;;9.40;100.00
64844;BME280;51310;52.198;5.422;2023-02-17T08:16:50;101419.00;;;9.43;100.00
64844;BME280;51310;52.198;5.422;2023-02-17T08:19:16;101421.16;;;9.48;100.00
64844;BME280;51310;52.198;5.422;2023-02-17T08:21:42;101403.34;;;9.49;100.00
64844;BME280;51310;52.198;5.422;2023-02-17T08:24:08;101416.97;;;9.48;100.00
64844;BME280;51310;52.198;5.422;2023-02-17T08:26:33;101412.31;;;9.53;100.00
64844;BME280;51310;52.198;5.422;2023-02-17T08:28:59;101431.22;;;9.53;100.00
64844;BME280;51310;52.198;5.422;2023-02-17T08:31:31;101438.16;;;9.54;100.00
64844;BME280;51310;52.198;5.422;2023-02-17T08:34:01;101446.06;;;9.56;100.00
64844;BME280;51310;52.198;5.422;2023-02-17T08:36:28;101449.88;;;9.59;100.00
64844;BME280;51310;52.198;5.422;2023-02-17T08:38:56;101436.84;;;9.58;100.00
64844;BME280;51310;52.198;5.422;2023-02-17T08:41:30;101443.66;;;9.57;100.00
64844;BME280;51310;52.198;5.422;2023-02-17T08:43:59;101460.16;;;9.59;100.00
64844;BME280;51310;52.198;5.422;2023-02-17T08:46:26;101461.97;;;9.60;100.00
64844;BME280;51310;52.198;5.422;2023-02-17T08:48:52;101470.03;;;9.63;100.00
64844;BME280;51310;52.198;5.422;2023-02-17T08:51:21;101479.97;;;9.60;100.00
64844;BME280;51310;52.198;5.422;2023-02-17T08:53:50;101481.63;;;9.60;100.00
64844;BME280;51310;52.198;5.422;2023-02-17T08:56:16;101469.00;;;9.54;100.00
64844;BME280;51310;52.198;5.422;2023-02-17T08:58:45;101471.75;;;9.56;100.00
64844;BME280;51310;52.198;5.422;2023-02-17T09:01:11;101481.72;;;9.53;100.00
64844;BME280;51310;52.198;5.422;2023-02-17T09:03:38;101462.78;;;9.52;100.00
64844;BME280;51310;52.198;5.422;2023-02-17T09:06:05;101454.53;;;9.55;100.00
64844;BME280;51310;52.198;5.422;2023-02-17T09:08:31;101475.22;;;9.56;100.00
64844;BME280;51310;52.198;5.422;2023-02-17T09:10:57;101471.75;;;9.56;100.00
64844;BME280;51310;52.198;5.422;2023-02-17T09:13:23;101485.28;;;9.62;100.00
64844;BME280;51310;52.198;5.422;2023-02-17T09:15:52;101486.38;;;9.64;100.00
64844;BME280;51310;52.198;5.422;2023-02-17T09:18:19;101484.53;;;9.63;100.00
64844;BME280;51310;52.198;5.422;2023-02-17T09:20:46;101474.44;;;9.64;100.00
64844;BME280;51310;52.198;5.422;2023-02-17T09:23:12;101467.78;;;9.67;100.00
64844;BME280;51310;52.198;5.422;2023-02-17T09:25:38;101463.75;;;9.69;100.00
64844;BME280;51310;52.198;5.422;2023-02-17T09:28:04;101454.22;;;9.68;100.00
64844;BME280;51310;52.198;5.422;2023-02-17T09:30:30;101447.25;;;9.67;100.00
64844;BME280;51310;52.198;5.422;2023-02-17T09:32:57;101455.44;;;9.71;100.00
64844;BME280;51310;52.198;5.422;2023-02-17T09:35:23;101456.34;;;9.72;100.00
64844;BME280;51310;52.198;5.422;2023-02-17T09:37:49;101448.25;;;9.76;100.00
64844;BME280;51310;52.198;5.422;2023-02-17T09:40:42;101466.19;;;9.83;100.00
64844;BME280;51310;52.198;5.422;2023-02-17T09:43:15;101459.38;;;9.83;100.00
64844;BME280;51310;52.198;5.422;2023-02-17T09:45:48;101446.25;;;9.89;100.00
64844;BME280;51310;52.198;5.422;2023-02-17T09:48:18;101447.41;;;10.00;100.00
64844;BME280;51310;52.198;5.422;2023-02-17T09:51:11;101459.31;;;10.06;100.00
64844;BME280;51310;52.198;5.422;2023-02-17T09:53:56;101445.69;;;10.07;100.00
64844;BME280;51310;52.198;5.422;2023-02-17T09:56:33;101428.00;;;10.11;100.00
64844;BME280;51310;52.198;5.422;2023-02-17T09:59:07;101444.38;;;10.11;100.00
64844;BME280;51310;52.198;5.422;2023-02-17T10:01:36;101459.03;;;10.12;100.00
64844;BME280;51310;52.198;5.422;2023-02-17T10:04:12;101452.75;;;10.17;100.00
64844;BME280;51310;52.198;5.422;2023-02-17T10:06:45;101451.69;;;10.15;100.00
64844;BME280;51310;52.198;5.422;2023-02-17T10:09:50;101462.53;;;10.13;100.00
64844;BME280;51310;52.198;5.422;2023-02-17T10:12:27;101456.66;;;10.14;100.00
64844;BME280;51310;52.198;5.422;2023-02-17T10:15:14;101481.28;;;10.12;100.00
64844;BME280;51310;52.198;5.422;2023-02-17T10:18:18;101480.22;;;10.10;100.00
64844;BME280;51310;52.198;5.422;2023-02-17T10:21:21;101488.34;;;10.05;100.00
64844;BME280;51310;52.198;5.422;2023-02-17T10:23:51;101486.94;;;10.00;100.00
64844;BME280;51310;52.198;5.422;2023-02-17T10:26:52;101494.06;;;10.03;100.00
64844;BME280;51310;52.198;5.422;2023-02-17T10:29:55;101505.44;;;10.05;100.00
64844;BME280;51310;52.198;5.422;2023-02-17T10:32:27;101499.88;;;10.09;100.00
64844;BME280;51310;52.198;5.422;2023-02-17T10:35:11;101485.19;;;10.08;100.00
64844;BME280;51310;52.198;5.422;2023-02-17T10:37:45;101477.63;;;10.10;100.00
64844;BME280;51310;52.198;5.422;2023-02-17T10:40:22;101468.13;;;10.09;100.00
64844;BME280;51310;52.198;5.422;2023-02-17T10:42:56;101463.69;;;10.07;100.00
64844;BME280;51310;52.198;5.422;2023-02-17T10:48:05;101503.69;;;10.13;100.00
64844;BME280;51310;52.198;5.422;2023-02-17T10:50:32;101495.97;;;10.13;100.00
64844;BME280;51310;52.198;5.422;2023-02-17T10:52:59;101495.06;;;10.12;100.00
64844;BME280;51310;52.198;5.422;2023-02-17T10:55:38;101478.47;;;10.17;100.00
64844;BME280;51310;52.198;5.422;2023-02-17T11:01:12;101487.91;;;10.25;100.00
64844;BME280;51310;52.198;5.422;2023-02-17T11:03:39;101494.66;;;10.32;100.00
64844;BME280;51310;52.198;5.422;2023-02-17T11:06:36;101504.13;;;10.40;100.00
64844;BME280;51310;52.198;5.422;2023-02-17T11:14:28;101531.72;;;10.41;100.00
64844;BME280;51310;52.198;5.422;2023-02-17T11:17:34;101527.38;;;10.33;100.00
64844;BME280;51310;52.198;5.422;2023-02-17T11:25:30;101534.94;;;10.32;100.00
64844;BME280;51310;52.198;5.422;2023-02-17T11:28:10;101548.16;;;10.27;100.00
64844;BME280;51310;52.198;5.422;2023-02-17T11:30:40;101548.88;;;10.34;100.00
64844;BME280;51310;52.198;5.422;2023-02-17T11:33:38;101545.22;;;10.32;100.00
64844;BME280;51310;52.198;5.422;2023-02-17T11:36:06;101539.16;;;10.31;100.00
64844;BME280;51310;52.198;5.422;2023-02-17T11:41:05;101545.81;;;10.29;100.00
64844;BME280;51310;52.198;5.422;2023-02-17T11:43:34;101518.06;;;10.26;100.00
64844;BME280;51310;52.198;5.422;2023-02-17T11:46:32;101540.44;;;10.27;100.00
64844;BME280;51310;52.198;5.422;2023-02-17T11:52:27;101557.19;;;10.31;100.00
64844;BME280;51310;52.198;5.422;2023-02-17T11:55:10;101546.53;;;10.28;100.00
64844;BME280;51310;52.198;5.422;2023-02-17T11:57:53;101550.19;;;10.30;100.00
64844;BME280;51310;52.198;5.422;2023-02-17T12:00:26;101559.94;;;10.25;100.00
64844;BME280;51310;52.198;5.422;2023-02-17T12:03:53;101566.44;;;10.22;100.00
64844;BME280;51310;52.198;5.422;2023-02-17T12:06:21;101564.78;;;10.22;100.00
64844;BME280;51310;52.198;5.422;2023-02-17T12:09:15;101575.06;;;10.22;100.00
64844;BME280;51310;52.198;5.422;2023-02-17T12:18:09;101570.06;;;10.08;100.00
64844;BME280;51310;52.198;5.422;2023-02-17T12:21:21;101593.78;;;10.05;100.00
64844;BME280;51310;52.198;5.422;2023-02-17T12:24:11;101589.53;;;10.06;100.00
64844;BME280;51310;52.198;5.422;2023-02-17T12:27:09;101589.72;;;10.07;100.00
64844;BME280;51310;52.198;5.422;2023-02-17T12:32:52;101599.78;;;9.90;100.00
64844;BME280;51310;52.198;5.422;2023-02-17T12:39:00;101601.16;;;9.56;100.00
64844;BME280;51310;52.198;5.422;2023-02-17T12:41:44;101607.78;;;9.54;100.00
64844;BME280;51310;52.198;5.422;2023-02-17T12:44:20;101604.47;;;9.55;100.00
64844;BME280;51310;52.198;5.422;2023-02-17T12:46:52;101622.91;;;9.44;100.00
64844;BME280;51310;52.198;5.422;2023-02-17T12:49:37;101617.22;;;9.39;100.00
64844;BME280;51310;52.198;5.422;2023-02-17T12:52:25;101605.34;;;9.33;100.00
64844;BME280;51310;52.198;5.422;2023-02-17T12:55:03;101622.94;;;9.37;100.00
64844;BME280;51310;52.198;5.422;2023-02-17T12:57:50;101619.66;;;9.38;100.00
64844;BME280;51310;52.198;5.422;2023-02-17T13:00:28;101636.31;;;9.41;100.00
64844;BME280;51310;52.198;5.422;2023-02-17T13:02:59;101606.41;;;9.42;100.00
64844;BME280;51310;52.198;5.422;2023-02-17T13:08:53;101598.19;;;9.60;100.00
64844;BME280;51310;52.198;5.422;2023-02-17T13:11:33;101599.97;;;9.69;100.00
64844;BME280;51310;52.198;5.422;2023-02-17T13:14:37;101614.94;;;9.80;100.00
64844;BME280;51310;52.198;5.422;2023-02-17T13:17:03;101607.44;;;9.97;100.00
64844;BME280;51310;52.198;5.422;2023-02-17T13:19:34;101598.19;;;10.06;100.00
64844;BME280;51310;52.198;5.422;2023-02-17T13:22:00;101603.78;;;10.18;100.00
64844;BME280;51310;52.198;5.422;2023-02-17T13:24:36;101593.19;;;10.31;100.00
64844;BME280;51310;52.198;5.422;2023-02-17T13:32:34;101630.09;;;10.55;100.00
64844;BME280;51310;52.198;5.422;2023-02-17T13:35:27;101596.94;;;10.58;100.00
64844;BME280;51310;52.198;5.422;2023-02-17T13:37:53;101605.03;;;10.61;100.00
64844;BME280;51310;52.198;5.422;2023-02-17T13:42:50;101612.75;;;10.61;100.00
64844;BME280;51310;52.198;5.422;2023-02-17T13:45:58;101618.31;;;10.57;100.00
64844;BME280;51310;52.198;5.422;2023-02-17T13:48:28;101614.81;;;10.56;100.00
64844;BME280;51310;52.198;5.422;2023-02-17T13:51:00;101612.06;;;10.55;100.00
64844;BME280;51310;52.198;5.422;2023-02-17T13:53:35;101605.03;;;10.61;100.00
64844;BME280;51310;52.198;5.422;2023-02-17T13:56:22;101612.41;;;10.58;100.00
64844;BME280;51310;52.198;5.422;2023-02-17T13:58:48;101598.38;;;10.63;100.00
64844;BME280;51310;52.198;5.422;2023-02-17T14:01:22;101603.34;;;10.61;100.00
64844;BME280;51310;52.198;5.422;2023-02-17T14:03:54;101601.50;;;10.60;100.00
64844;BME280;51310;52.198;5.422;2023-02-17T14:06:29;101593.06;;;10.61;100.00
64844;BME280;51310;52.198;5.422;2023-02-17T14:08:55;101604.19;;;10.69;100.00
64844;BME280;51310;52.198;5.422;2023-02-17T14:11:26;101601.72;;;10.78;100.00
64844;BME280;51310;52.198;5.422;2023-02-17T14:13:55;101601.78;;;10.86;100.00
64844;BME280;51310;52.198;5.422;2023-02-17T14:16:39;101594.78;;;10.85;100.00
64844;BME280;51310;52.198;5.422;2023-02-17T14:19:15;101608.25;;;10.83;100.00
64844;BME280;51310;52.198;5.422;2023-02-17T14:21:57;101604.19;;;10.85;100.00